Data for 12/24/2006

Time Sea-Level Adjusted Pressure Absolute Pressure Temperature Relative Humidity Dew Point   
(mb) (inHg) (mb) (inHg) (C) (F) (%) (C) (F)
00:05 1018 30.06 847 25.01 -2.2 28 94 -3.1 26.4
00:10 1018 30.06 847 25.01 -2.3 27.9 94 -3.2 26.3
00:15 1018 30.06 847 25.01 -2.3 27.9 94 -3.1 26.4
00:20 1018 30.06 847 25.01 -2.4 27.7 94 -3.2 26.2
00:25 1018 30.06 847 25.01 -2.3 27.8 94 -3.2 26.3
00:30 1018 30.06 847 25.01 -2.1 28.2 93 -3 26.5
00:35 1018 30.06 847 25.01 -2 28.4 92 -3.1 26.5
00:40 1018 30.06 847 25.01 -1.8 28.7 91 -3.2 26.3
00:45 1018 30.06 847 25.01 -1.6 29.1 90 -3.1 26.5
00:50 1018 30.06 847 25.01 -1.5 29.3 89 -3.1 26.5
00:55 1018 30.06 848 25.04 -1.3 29.6 87 -3.2 26.3
01:00 1018 30.06 848 25.04 -1.3 29.7 87 -3.2 26.3
01:05 1018 30.06 848 25.04 -1.3 29.7 87 -3.2 26.3
01:10 1018 30.06 848 25.04 -1.3 29.7 86 -3.3 26
01:15 1018 30.06 848 25.04 -1.2 29.9 84 -3.5 25.8
01:20 1018 30.06 848 25.04 -1.1 29.9 82 -3.8 25.2
01:25 1018 30.06 848 25.04 -1.3 29.7 82 -4 24.8
01:30 1018 30.06 848 25.04 -1.5 29.3 82 -4.2 24.4
01:35 1018 30.06 847 25.01 -1.4 29.5 80 -4.4 24.1
01:40 1018 30.06 848 25.04 -1.3 29.7 81 -4.2 24.5
01:45 1018 30.06 848 25.04 -1.3 29.7 81 -4.1 24.6
01:50 1019 30.09 848 25.04 -1.1 30.1 80 -4.1 24.5
01:55 1019 30.09 848 25.04 -1.1 30 81 -4 24.7
02:00 1019 30.09 848 25.04 -1.3 29.7 81 -4.1 24.5
02:05 1019 30.09 848 25.04 -1.3 29.7 80 -4.3 24.3
02:10 1019 30.09 848 25.04 -1.1 30.1 79 -4.2 24.4
02:15 1019 30.09 848 25.04 -1 30.1 79 -4.2 24.4
02:20 1019 30.09 848 25.04 -1 30.3 79 -4.2 24.5
02:25 1019 30.09 848 25.04 -0.9 30.5 78 -4.2 24.5
02:30 1019 30.09 849 25.07 -0.9 30.3 79 -4.1 24.6
02:35 1020 30.12 849 25.07 -1.1 30 80 -4.2 24.5
02:40 1020 30.12 849 25.07 -1.2 29.8 77 -4.8 23.4
02:45 1020 30.12 849 25.07 -1.1 30.1 76 -4.8 23.3
02:50 1020 30.12 849 25.07 -1.2 29.9 77 -4.7 23.6
02:55 1020 30.12 849 25.07 -1.3 29.6 77 -4.8 23.4
03:00 1020 30.12 849 25.07 -1.5 29.3 76 -5.2 22.7
03:05 1020 30.12 849 25.07 -1.5 29.3 73 -5.8 21.6
03:10 1020 30.12 849 25.07 -1.6 29.1 72 -6 21.2
03:15 1020 30.12 850 25.1 -1.7 28.9 74 -5.8 21.5
03:20 1021 30.15 850 25.1 -1.8 28.8 75 -5.7 21.8
03:25 1021 30.15 850 25.1 -1.8 28.8 74 -5.8 21.6
03:30 1021 30.15 850 25.1 -1.8 28.7 74 -5.9 21.5
03:35 1021 30.15 850 25.1 -1.9 28.6 72 -6.3 20.7
03:40 1021 30.15 850 25.1 -2 28.5 72 -6.4 20.5
03:45 1021 30.15 850 25.1 -1.9 28.6 70 -6.6 20.1
03:50 1021 30.15 850 25.1 -1.8 28.7 69 -6.7 19.9
03:55 1021 30.15 850 25.1 -1.8 28.7 69 -6.8 19.7
04:00 1021 30.15 850 25.1 -1.8 28.8 67 -7.1 19.2
04:05 1021 30.15 851 25.13 -1.7 29 65 -7.4 18.7
04:10 1022 30.18 851 25.13 -1.8 28.8 65 -7.5 18.4
04:15 1022 30.18 851 25.13 -1.9 28.6 65 -7.5 18.4
04:20 1022 30.18 851 25.13 -1.9 28.6 66 -7.4 18.7
04:25 1022 30.18 851 25.13 -2.1 28.3 67 -7.4 18.7
04:30 1022 30.18 851 25.13 -2.1 28.2 67 -7.4 18.7
04:35 1022 30.18 851 25.13 -2.1 28.2 67 -7.4 18.7
04:40 1022 30.18 852 25.16 -2.2 28 68 -7.3 18.9
04:45 1022 30.18 852 25.16 -2.5 27.6 70 -7.2 19
04:50 1023 30.21 852 25.16 -2.5 27.5 71 -7.1 19.3
04:55 1023 30.21 852 25.16 -2.6 27.4 72 -6.8 19.7
05:00 1023 30.21 852 25.16 -2.6 27.3 73 -6.8 19.8
05:05 1023 30.21 852 25.16 -2.7 27.2 74 -6.7 19.9
05:10 1023 30.21 852 25.16 -2.7 27.1 74 -6.7 19.9
05:15 1023 30.21 852 25.16 -2.8 27 75 -6.7 20
05:20 1023 30.21 853 25.19 -2.8 26.9 75 -6.6 20.1
05:25 1023 30.21 853 25.19 -2.8 27 75 -6.6 20.1
05:30 1023 30.21 853 25.19 -3 26.6 75 -6.9 19.6
05:35 1024 30.24 853 25.19 -3.5 25.7 76 -7.2 19.1
05:40 1024 30.24 853 25.19 -3.5 25.6 75 -7.4 18.7
05:45 1024 30.24 853 25.19 -3.6 25.6 73 -7.7 18.2
05:50 1024 30.24 853 25.19 -3.4 25.8 72 -7.8 17.9
05:55 1024 30.24 853 25.19 -3.2 26.2 71 -7.7 18.1
06:00 1024 30.24 854 25.22 -3.1 26.3 69 -8 17.6
06:05 1024 30.24 854 25.22 -2.9 26.8 68 -8 17.6
06:10 1024 30.24 854 25.22 -2.8 27 67 -8.1 17.4
06:15 1024 30.24 854 25.22 -2.7 27.2 66 -8.3 17.1
06:20 1025 30.27 854 25.22 -2.6 27.4 64 -8.4 16.9
06:25 1025 30.27 854 25.22 -2.5 27.5 65 -8.3 17.1
06:30 1025 30.27 854 25.22 -2.4 27.7 64 -8.3 17.1
06:35 1025 30.27 854 25.22 -2.3 27.8 64 -8.3 17.1
06:40 1025 30.27 854 25.22 -2.3 27.8 66 -7.9 17.8
06:45 1025 30.27 854 25.22 -2.6 27.4 67 -7.9 17.8
06:50 1025 30.27 854 25.22 -2.5 27.5 66 -8.1 17.4
06:55 1025 30.27 855 25.25 -2.5 27.6 65 -8.1 17.4
07:00 1025 30.27 855 25.25 -2.3 27.9 63 -8.5 16.7
07:05 1025 30.27 855 25.25 -2.2 28 62 -8.5 16.8
07:10 1026 30.3 855 25.25 -2.2 28.1 60 -8.9 16
07:15 1026 30.3 855 25.25 -2.1 28.2 59 -9 15.7
07:20 1026 30.3 855 25.25 -2 28.4 59 -9 15.7
07:25 1026 30.3 855 25.25 -2 28.4 59 -8.9 15.9
07:30 1026 30.3 855 25.25 -2 28.4 57 -9.3 15.2
07:35 1026 30.3 855 25.25 -2 28.5 59 -8.9 15.9
07:40 1026 30.3 855 25.25 -2 28.5 58 -9.1 15.6
07:45 1026 30.3 855 25.25 -2 28.5 57 -9.3 15.3
07:50 1026 30.3 855 25.25 -1.9 28.5 57 -9.3 15.2
07:55 1026 30.3 855 25.25 -2 28.5 57 -9.4 15
08:00 1026 30.3 855 25.25 -1.9 28.5 57 -9.4 15
08:05 1026 30.3 855 25.25 -2 28.3 57 -9.4 15.1
08:10 1026 30.3 856 25.28 -2.1 28.3 58 -9.3 15.2
08:15 1026 30.3 856 25.28 -2.1 28.2 57 -9.6 14.8
08:20 1026 30.3 856 25.28 -2.1 28.3 57 -9.6 14.8
08:25 1026 30.3 856 25.28 -2.1 28.3 57 -9.5 14.9
08:30 1026 30.3 856 25.28 -2 28.3 56 -9.7 14.5
08:35 1027 30.33 856 25.28 -2 28.4 57 -9.5 14.9
08:40 1027 30.33 856 25.28 -2 28.4 57 -9.5 14.9
08:45 1027 30.33 856 25.28 -2.3 27.8 58 -9.6 14.8
08:50 1027 30.33 856 25.28 -2.7 27.1 59 -9.7 14.5
08:55 1027 30.33 856 25.28 -2.7 27.1 60 -9.5 14.9
09:00 1027 30.33 856 25.28 -2.4 27.7 57 -9.8 14.4
09:05 1027 30.33 856 25.28 -2.2 28 57 -9.7 14.6
09:10 1027 30.33 856 25.28 -2.5 27.6 59 -9.5 15
09:15 1027 30.33 856 25.28 -2.7 27.2 59 -9.7 14.6
09:20 1027 30.33 856 25.28 -2.6 27.3 58 -9.7 14.5
09:25 1027 30.33 856 25.28 -2.7 27.2 59 -9.6 14.7
09:30 1027 30.33 856 25.28 -2.6 27.3 56 -10.1 13.8
09:35 1027 30.33 857 25.31 -2.3 27.9 54 -10.3 13.4
09:40 1027 30.33 857 25.31 -1.8 28.7 52 -10.3 13.4
09:45 1027 30.33 857 25.31 -1.3 29.6 51 -10.2 13.6
09:50 1027 30.33 857 25.31 -1.2 29.8 49 -10.6 12.9
09:55 1028 30.36 857 25.31 -1 30.2 51 -9.9 14.1
10:00 1028 30.36 857 25.31 -1 30.2 51 -9.8 14.3
10:05 1028 30.36 857 25.31 -0.6 30.9 49 -10.1 13.9
10:10 1028 30.36 857 25.31 -0.7 30.7 48 -10.4 13.2
10:15 1028 30.36 857 25.31 -0 32 46 -10.4 13.4
10:20 1028 30.36 857 25.31 0.4 32.7 45 -10.2 13.6
10:25 1028 30.36 857 25.31 0.6 33.1 45 -10.1 13.7
10:30 1028 30.36 857 25.31 0.2 32.4 45 -10.3 13.5
10:35 1028 30.36 857 25.31 -0.1 31.9 47 -10.2 13.6
10:40 1028 30.36 857 25.31 -0.3 31.4 47 -10.3 13.5
10:45 1028 30.36 857 25.31 0 32.1 45 -10.6 13
10:50 1028 30.36 857 25.31 0 32.1 47 -10.1 13.9
10:55 1028 30.36 857 25.31 -0.2 31.6 47 -10.3 13.5
11:00 1028 30.36 857 25.31 -0.1 31.7 46 -10.4 13.2
11:05 1028 30.36 857 25.31 0.2 32.3 45 -10.4 13.2
11:10 1028 30.36 857 25.31 0.4 32.7 45 -10.2 13.6
11:15 1028 30.36 857 25.31 0.4 32.7 45 -10.2 13.7
11:20 1028 30.36 857 25.31 0.3 32.6 44 -10.5 13
11:25 1028 30.36 857 25.31 0.4 32.8 45 -10.1 13.8
11:30 1028 30.36 857 25.31 0.2 32.4 46 -10 14
11:35 1028 30.36 857 25.31 0.1 32.2 45 -10.4 13.4
11:40 1028 30.36 857 25.31 0 32 47 -10.1 13.9
11:45 1028 30.36 857 25.31 0.5 32.8 44 -10.4 13.3
11:50 1028 30.36 857 25.31 1 33.7 43 -10.3 13.4
11:55 1028 30.36 857 25.31 1.1 34 41 -10.6 12.9
12:00 1028 30.36 857 25.31 1.1 34 43 -10.2 13.6
12:05 1028 30.36 857 25.31 1.2 34.1 42 -10.2 13.6
12:10 1028 30.36 858 25.34 1.5 34.7 40 -10.7 12.7
12:15 1028 30.36 858 25.34 1.5 34.6 42 -10.2 13.6
12:20 1028 30.36 858 25.34 1.6 34.9 40 -10.7 12.7
12:25 1028 30.36 858 25.34 1.9 35.4 38 -11 12.2
12:30 1028 30.36 858 25.34 1.8 35.3 40 -10.4 13.3
12:35 1028 30.36 858 25.34 1.5 34.6 40 -10.7 12.8
12:40 1028 30.36 858 25.34 1.4 34.5 40 -10.7 12.7
12:45 1028 30.36 858 25.34 1.8 35.2 38 -11 12.3
12:50 1028 30.36 857 25.31 2.1 35.8 37 -11.2 11.8
12:55 1028 30.36 857 25.31 2.1 35.8 36 -11.6 11.1
13:00 1028 30.36 857 25.31 1.6 34.9 38 -11.4 11.5
13:05 1028 30.36 857 25.31 1.8 35.2 37 -11.5 11.3
13:10 1028 30.36 857 25.31 1.8 35.3 38 -11.1 12
13:15 1028 30.36 857 25.31 1.8 35.3 37 -11.5 11.3
13:20 1028 30.36 857 25.31 2.1 35.8 36 -11.6 11.1
13:25 1028 30.36 857 25.31 2.1 35.8 35 -11.8 10.8
13:30 1028 30.36 857 25.31 2.1 35.8 35 -11.7 11
13:35 1028 30.36 857 25.31 2.1 35.7 36 -11.5 11.3
13:40 1028 30.36 857 25.31 1.7 35.1 37 -11.5 11.4
13:45 1028 30.36 857 25.31 2.1 35.8 36 -11.5 11.4
13:50 1028 30.36 857 25.31 1.8 35.2 38 -11.1 12
13:55 1028 30.36 857 25.31 1.3 34.4 39 -11.2 11.8
14:00 1028 30.36 857 25.31 1.4 34.5 40 -10.8 12.6
14:05 1028 30.36 857 25.31 0.7 33.2 42 -10.9 12.3
14:10 1028 30.36 857 25.31 0.8 33.4 41 -11.2 11.9
14:15 1028 30.36 857 25.31 0.6 33 41 -11.3 11.7
14:20 1028 30.36 857 25.31 1 33.9 39 -11.6 11.2
14:25 1028 30.36 857 25.31 1 33.8 38 -11.8 10.8
14:30 1028 30.36 857 25.31 1.4 34.6 36 -12 10.5
14:35 1027 30.33 857 25.31 1.4 34.5 38 -11.4 11.5
14:40 1028 30.36 857 25.31 1.1 34 38 -11.6 11.1
14:45 1028 30.36 857 25.31 0.9 33.6 38 -12 10.4
14:50 1028 30.36 857 25.31 0.5 32.8 38 -12.3 9.9
14:55 1028 30.36 857 25.31 0.2 32.4 39 -12.2 10
15:00 1028 30.36 857 25.31 0.1 32.2 40 -12 10.4
15:05 1028 30.36 857 25.31 0.4 32.8 39 -11.9 10.6
15:10 1028 30.36 857 25.31 0.6 33.1 38 -12.3 9.8
15:15 1028 30.36 857 25.31 0.1 32.2 39 -12.4 9.6
15:20 1028 30.36 857 25.31 -0.1 31.7 38 -12.7 9.1
15:25 1028 30.36 857 25.31 -0.2 31.7 38 -12.9 8.8
15:30 1028 30.36 857 25.31 0.3 32.5 38 -12.5 9.5
15:35 1028 30.36 857 25.31 0.9 33.6 36 -12.7 9.1
15:40 1028 30.36 857 25.31 1 33.7 34 -13.1 8.4
15:45 1028 30.36 857 25.31 1 33.7 35 -12.8 9
15:50 1028 30.36 857 25.31 1.1 34 38 -11.9 10.7
15:55 1028 30.36 857 25.31 0.4 32.8 41 -11.2 11.8
16:00 1028 30.36 857 25.31 -0.7 30.7 44 -11.5 11.3
16:05 1028 30.36 857 25.31 -1.2 29.9 47 -11.2 11.8
16:10 1028 30.36 857 25.31 -1.5 29.3 49 -10.9 12.3
16:15 1027 30.33 857 25.31 -1.8 28.8 49 -11.1 12
16:20 1027 30.33 857 25.31 -2.3 27.8 51 -11.2 11.8
16:25 1027 30.33 857 25.31 -2.6 27.3 52 -11.3 11.7
16:30 1027 30.33 857 25.31 -2.6 27.4 51 -11.3 11.7
16:35 1027 30.33 857 25.31 -2.6 27.3 51 -11.4 11.4
16:40 1027 30.33 856 25.28 -2.7 27.1 51 -11.5 11.3
16:45 1027 30.33 856 25.28 -3 26.6 52 -11.5 11.4
16:50 1027 30.33 856 25.28 -3.2 26.3 54 -11.3 11.6
16:55 1027 30.33 857 25.31 -3.4 25.8 54 -11.5 11.3
17:00 1027 30.33 856 25.28 -3.8 25.1 55 -11.5 11.3
17:05 1027 30.33 856 25.28 -4.1 24.6 55 -12 10.5
17:10 1027 30.33 856 25.28 -4.3 24.3 56 -11.9 10.6
17:15 1027 30.33 856 25.28 -4.5 24 56 -11.9 10.6
17:20 1027 30.33 856 25.28 -4.9 23.2 58 -12 10.4
17:25 1027 30.33 856 25.28 -5.1 22.8 57 -12.3 9.9
17:30 1027 30.33 856 25.28 -5 23 56 -12.5 9.6
17:35 1027 30.33 856 25.28 -5.2 22.7 57 -12.4 9.7
17:40 1027 30.33 856 25.28 -5.3 22.5 57 -12.5 9.5
17:45 1027 30.33 856 25.28 -5.3 22.4 58 -12.5 9.6
17:50 1027 30.33 856 25.28 -5.5 22.1 58 -12.5 9.5
17:55 1027 30.33 856 25.28 -5.7 21.7 59 -12.5 9.5
18:00 1027 30.33 856 25.28 -5.8 21.6 57 -12.9 8.8
18:05 1027 30.33 856 25.28 -5.8 21.6 58 -12.8 9
18:10 1027 30.33 856 25.28 -6 21.1 59 -12.8 9
18:15 1027 30.33 856 25.28 -6.2 20.8 60 -12.9 8.8
18:20 1027 30.33 856 25.28 -6.1 21.1 60 -12.6 9.4
18:25 1026 30.3 856 25.28 -5.8 21.6 61 -12.3 9.9
18:30 1026 30.3 856 25.28 -5.7 21.7 60 -12.2 10
18:35 1026 30.3 856 25.28 -5.8 21.5 61 -12.2 10
18:40 1026 30.3 855 25.25 -5.8 21.5 61 -12.3 9.9
18:45 1026 30.3 855 25.25 -5.7 21.7 60 -12.3 9.8
18:50 1026 30.3 855 25.25 -5.5 22.1 59 -12.3 9.9
18:55 1026 30.3 855 25.25 -5.5 22.2 59 -12.2 10
19:00 1026 30.3 855 25.25 -5.4 22.2 59 -12.3 9.9
19:05 1026 30.3 855 25.25 -5.4 22.2 59 -12.3 9.9
19:10 1026 30.3 855 25.25 -5.5 22 59 -12.4 9.7
19:15 1026 30.3 855 25.25 -5.5 22.1 58 -12.6 9.4
19:20 1026 30.3 855 25.25 -5.7 21.7 58 -12.8 9
19:25 1026 30.3 855 25.25 -5.8 21.5 58 -12.8 8.9
19:30 1026 30.3 855 25.25 -5.9 21.4 58 -12.8 8.9
19:35 1026 30.3 855 25.25 -5.9 21.4 58 -12.9 8.7
19:40 1026 30.3 855 25.25 -5.8 21.6 57 -12.9 8.7
19:45 1026 30.3 855 25.25 -5.7 21.8 56 -13 8.5
19:50 1025 30.27 855 25.25 -5.7 21.8 56 -13.1 8.4
19:55 1025 30.27 854 25.22 -5.4 22.3 55 -13 8.5
20:00 1025 30.27 854 25.22 -5.3 22.4 55 -13 8.5
20:05 1025 30.27 854 25.22 -5.2 22.7 53 -13.3 8
20:10 1025 30.27 854 25.22 -5 23 53 -13.3 8.1
20:15 1025 30.27 854 25.22 -5.1 22.8 53 -13.3 8
20:20 1025 30.27 854 25.22 -5 23 51 -13.7 7.4
20:25 1024 30.24 854 25.22 -4.8 23.4 51 -13.4 7.8
20:30 1024 30.24 854 25.22 -4.9 23.3 51 -13.5 7.7
20:35 1024 30.24 854 25.22 -4.9 23.2 52 -13.4 7.9
20:40 1024 30.24 854 25.22 -4.9 23.1 51 -13.7 7.3
20:45 1024 30.24 853 25.19 -4.9 23.3 50 -13.7 7.4
20:50 1024 30.24 854 25.22 -5.1 22.9 50 -14 6.8
20:55 1024 30.24 854 25.22 -5.1 22.9 51 -13.7 7.4
21:00 1024 30.24 853 25.19 -5.2 22.6 51 -13.9 6.9
21:05 1024 30.24 853 25.19 -5.1 22.9 50 -13.9 7
21:10 1024 30.24 853 25.19 -5 23.1 49 -14.2 6.4
21:15 1024 30.24 853 25.19 -4.9 23.1 48 -14.3 6.3
21:20 1024 30.24 853 25.19 -4.8 23.3 47 -14.5 6
21:25 1024 30.24 853 25.19 -4.7 23.6 46 -14.7 5.6
21:30 1024 30.24 853 25.19 -4.6 23.7 46 -14.5 5.9
21:35 1024 30.24 853 25.19 -4.8 23.3 48 -14.3 6.2
21:40 1024 30.24 853 25.19 -4.9 23.2 47 -14.6 5.7
21:45 1024 30.24 853 25.19 -5 23 47 -14.7 5.5
21:50 1024 30.24 853 25.19 -5 23 46 -14.9 5.3
21:55 1024 30.24 853 25.19 -4.7 23.5 45 -14.9 5.1
22:00 1024 30.24 853 25.19 -4.6 23.7 44 -15 5
22:05 1023 30.21 853 25.19 -4.5 24 43 -15.1 4.7
22:10 1023 30.21 853 25.19 -4.4 24 43 -15.1 4.8
22:15 1023 30.21 852 25.16 -4.6 23.7 45 -14.8 5.4
22:20 1023 30.21 852 25.16 -4.9 23.2 45 -15 5
22:25 1023 30.21 852 25.16 -5 23 46 -15 5
22:30 1023 30.21 852 25.16 -5 23 46 -14.9 5.2
22:35 1023 30.21 852 25.16 -4.8 23.4 44 -15.1 4.7
22:40 1023 30.21 852 25.16 -4.4 24.1 43 -15.1 4.9
22:45 1023 30.21 852 25.16 -4.2 24.4 43 -15 5.1
22:50 1023 30.21 852 25.16 -4 24.7 42 -15.1 4.8
22:55 1023 30.21 852 25.16 -3.9 24.9 42 -15.1 4.7
23:00 1023 30.21 852 25.16 -3.8 25.2 41 -15.1 4.8
23:05 1023 30.21 852 25.16 -3.9 25 43 -14.7 5.5
23:10 1023 30.21 852 25.16 -4.3 24.2 46 -14.3 6.3
23:15 1023 30.21 852 25.16 -4.8 23.3 47 -14.6 5.7
23:20 1023 30.21 852 25.16 -4.7 23.5 44 -15.2 4.6
23:25 1023 30.21 852 25.16 -4.4 24.1 43 -15.1 4.8
23:30 1023 30.21 852 25.16 -4 24.8 40 -15.7 3.8
23:35 1023 30.21 852 25.16 -3.9 25 41 -15.4 4.2
23:40 1023 30.21 852 25.16 -3.9 24.9 42 -15.1 4.8
23:45 1023 30.21 852 25.16 -4.4 24.2 46 -14.3 6.3
23:50 1023 30.21 852 25.16 -4.7 23.5 49 -13.9 7
23:55 1023 30.21 852 25.16 -4.8 23.4 48 -14.3 6.3
24:00 1023 30.21 852 25.16 -4.9 23.2 49 -14.1 6.5